sensor_id;sensor_type;location;lat;lon;timestamp;temperature;humidity
17154;DHT22;8692;52.164;7.558;2023-05-10T00:00:08;15.40;99.90
17154;DHT22;8692;52.164;7.558;2023-05-10T00:02:41;15.40;99.90
17154;DHT22;8692;52.164;7.558;2023-05-10T00:05:10;15.40;99.90
17154;DHT22;8692;52.164;7.558;2023-05-10T00:07:38;15.30;99.90
17154;DHT22;8692;52.164;7.558;2023-05-10T00:10:06;15.30;99.90
17154;DHT22;8692;52.164;7.558;2023-05-10T00:12:37;15.30;99.90
17154;DHT22;8692;52.164;7.558;2023-05-10T00:15:08;15.30;99.90
17154;DHT22;8692;52.164;7.558;2023-05-10T00:17:40;15.30;99.90
17154;DHT22;8692;52.164;7.558;2023-05-10T00:20:11;15.20;99.90
17154;DHT22;8692;52.164;7.558;2023-05-10T00:22:40;15.30;99.90
17154;DHT22;8692;52.164;7.558;2023-05-10T00:25:10;15.20;99.90
17154;DHT22;8692;52.164;7.558;2023-05-10T00:27:39;15.30;99.90
17154;DHT22;8692;52.164;7.558;2023-05-10T00:30:08;15.30;99.90
17154;DHT22;8692;52.164;7.558;2023-05-10T00:32:38;15.30;99.90
17154;DHT22;8692;52.164;7.558;2023-05-10T00:35:10;15.30;99.90
17154;DHT22;8692;52.164;7.558;2023-05-10T00:37:41;15.30;99.90
17154;DHT22;8692;52.164;7.558;2023-05-10T00:40:10;15.30;99.90
17154;DHT22;8692;52.164;7.558;2023-05-10T00:42:39;15.30;99.90
17154;DHT22;8692;52.164;7.558;2023-05-10T00:45:10;15.20;99.90
17154;DHT22;8692;52.164;7.558;2023-05-10T00:47:39;15.20;99.90
17154;DHT22;8692;52.164;7.558;2023-05-10T00:50:10;15.30;99.90
17154;DHT22;8692;52.164;7.558;2023-05-10T00:52:38;15.30;99.90
17154;DHT22;8692;52.164;7.558;2023-05-10T00:55:07;15.20;99.90
17154;DHT22;8692;52.164;7.558;2023-05-10T00:57:39;15.30;99.90
17154;DHT22;8692;52.164;7.558;2023-05-10T01:00:08;15.20;99.90
17154;DHT22;8692;52.164;7.558;2023-05-10T01:02:37;15.20;99.90
17154;DHT22;8692;52.164;7.558;2023-05-10T01:05:07;15.10;99.90
17154;DHT22;8692;52.164;7.558;2023-05-10T01:07:37;15.10;99.90
17154;DHT22;8692;52.164;7.558;2023-05-10T01:10:06;15.10;99.90
17154;DHT22;8692;52.164;7.558;2023-05-10T01:12:39;15.10;99.90
17154;DHT22;8692;52.164;7.558;2023-05-10T01:15:09;15.10;99.90
17154;DHT22;8692;52.164;7.558;2023-05-10T01:17:40;15.00;99.90
17154;DHT22;8692;52.164;7.558;2023-05-10T01:20:11;15.10;99.90
17154;DHT22;8692;52.164;7.558;2023-05-10T01:23:13;15.00;99.90
17154;DHT22;8692;52.164;7.558;2023-05-10T01:26:07;15.00;99.90
17154;DHT22;8692;52.164;7.558;2023-05-10T01:28:58;15.00;99.90
17154;DHT22;8692;52.164;7.558;2023-05-10T01:34:35;14.90;99.90
17154;DHT22;8692;52.164;7.558;2023-05-10T01:37:09;14.90;99.90
17154;DHT22;8692;52.164;7.558;2023-05-10T01:39:44;14.80;99.90
17154;DHT22;8692;52.164;7.558;2023-05-10T01:42:16;14.80;99.90
17154;DHT22;8692;52.164;7.558;2023-05-10T01:44:51;14.80;99.90
17154;DHT22;8692;52.164;7.558;2023-05-10T01:47:29;14.70;99.90
17154;DHT22;8692;52.164;7.558;2023-05-10T01:50:04;14.70;99.90
17154;DHT22;8692;52.164;7.558;2023-05-10T01:52:37;14.70;99.90
17154;DHT22;8692;52.164;7.558;2023-05-10T01:55:11;14.60;99.90
17154;DHT22;8692;52.164;7.558;2023-05-10T01:57:43;14.60;99.90
17154;DHT22;8692;52.164;7.558;2023-05-10T02:00:13;14.50;99.90
17154;DHT22;8692;52.164;7.558;2023-05-10T02:02:45;14.40;99.90
17154;DHT22;8692;52.164;7.558;2023-05-10T02:05:16;14.40;99.90
17154;DHT22;8692;52.164;7.558;2023-05-10T02:07:45;14.40;99.90
17154;DHT22;8692;52.164;7.558;2023-05-10T02:10:14;14.40;99.90
17154;DHT22;8692;52.164;7.558;2023-05-10T02:12:47;14.30;99.90
17154;DHT22;8692;52.164;7.558;2023-05-10T02:15:24;14.20;99.90
17154;DHT22;8692;52.164;7.558;2023-05-10T02:17:55;14.30;99.90
17154;DHT22;8692;52.164;7.558;2023-05-10T02:20:29;14.20;99.90
17154;DHT22;8692;52.164;7.558;2023-05-10T02:22:59;14.20;99.90
17154;DHT22;8692;52.164;7.558;2023-05-10T02:25:29;14.20;99.90
17154;DHT22;8692;52.164;7.558;2023-05-10T02:28:03;14.20;99.90
17154;DHT22;8692;52.164;7.558;2023-05-10T02:30:33;14.20;99.90
17154;DHT22;8692;52.164;7.558;2023-05-10T02:33:04;14.10;99.90
17154;DHT22;8692;52.164;7.558;2023-05-10T02:35:34;14.10;99.90
17154;DHT22;8692;52.164;7.558;2023-05-10T02:38:03;14.10;99.90
17154;DHT22;8692;52.164;7.558;2023-05-10T02:40:32;14.10;99.90
17154;DHT22;8692;52.164;7.558;2023-05-10T02:43:02;14.10;99.90
17154;DHT22;8692;52.164;7.558;2023-05-10T02:45:35;14.00;99.90
17154;DHT22;8692;52.164;7.558;2023-05-10T02:48:09;14.10;99.90
17154;DHT22;8692;52.164;7.558;2023-05-10T02:50:41;14.00;99.90
17154;DHT22;8692;52.164;7.558;2023-05-10T02:53:16;14.00;99.90
17154;DHT22;8692;52.164;7.558;2023-05-10T02:55:49;14.00;99.90
17154;DHT22;8692;52.164;7.558;2023-05-10T02:58:18;14.00;99.90
17154;DHT22;8692;52.164;7.558;2023-05-10T03:00:49;14.00;99.90
17154;DHT22;8692;52.164;7.558;2023-05-10T03:03:18;13.90;99.90
17154;DHT22;8692;52.164;7.558;2023-05-10T03:05:50;13.90;99.90
17154;DHT22;8692;52.164;7.558;2023-05-10T03:08:20;13.90;99.90
17154;DHT22;8692;52.164;7.558;2023-05-10T03:10:59;13.90;99.90
17154;DHT22;8692;52.164;7.558;2023-05-10T03:13:33;13.90;99.90
17154;DHT22;8692;52.164;7.558;2023-05-10T03:16:10;13.90;99.90
17154;DHT22;8692;52.164;7.558;2023-05-10T03:18:43;13.90;99.90
17154;DHT22;8692;52.164;7.558;2023-05-10T03:21:17;13.90;99.90
17154;DHT22;8692;52.164;7.558;2023-05-10T03:23:53;13.80;99.90
17154;DHT22;8692;52.164;7.558;2023-05-10T03:26:28;13.80;99.90
17154;DHT22;8692;52.164;7.558;2023-05-10T03:29:08;13.80;99.90
17154;DHT22;8692;52.164;7.558;2023-05-10T03:31:38;13.80;99.90
17154;DHT22;8692;52.164;7.558;2023-05-10T03:34:09;13.80;99.90
17154;DHT22;8692;52.164;7.558;2023-05-10T03:36:40;13.80;99.90
17154;DHT22;8692;52.164;7.558;2023-05-10T03:39:08;13.80;99.90
17154;DHT22;8692;52.164;7.558;2023-05-10T03:41:37;13.80;99.90
17154;DHT22;8692;52.164;7.558;2023-05-10T03:44:05;13.80;99.90
17154;DHT22;8692;52.164;7.558;2023-05-10T03:46:35;13.80;99.90
17154;DHT22;8692;52.164;7.558;2023-05-10T03:49:04;13.70;99.90
17154;DHT22;8692;52.164;7.558;2023-05-10T03:51:32;13.70;99.90
17154;DHT22;8692;52.164;7.558;2023-05-10T03:54:04;13.70;99.90
17154;DHT22;8692;52.164;7.558;2023-05-10T03:56:33;13.70;99.90
17154;DHT22;8692;52.164;7.558;2023-05-10T03:59:01;13.70;99.90
17154;DHT22;8692;52.164;7.558;2023-05-10T04:01:36;13.70;99.90
17154;DHT22;8692;52.164;7.558;2023-05-10T04:04:08;13.70;99.90
17154;DHT22;8692;52.164;7.558;2023-05-10T04:06:38;13.60;99.90
17154;DHT22;8692;52.164;7.558;2023-05-10T04:09:07;13.60;99.90
17154;DHT22;8692;52.164;7.558;2023-05-10T04:11:35;13.60;99.90
17154;DHT22;8692;52.164;7.558;2023-05-10T04:14:04;13.60;99.90
17154;DHT22;8692;52.164;7.558;2023-05-10T04:16:32;13.60;99.90
17154;DHT22;8692;52.164;7.558;2023-05-10T04:19:00;13.50;99.90
17154;DHT22;8692;52.164;7.558;2023-05-10T04:21:29;13.50;99.90
17154;DHT22;8692;52.164;7.558;2023-05-10T04:23:58;13.60;99.90
17154;DHT22;8692;52.164;7.558;2023-05-10T04:26:30;13.50;99.90
17154;DHT22;8692;52.164;7.558;2023-05-10T04:28:58;13.50;99.90
17154;DHT22;8692;52.164;7.558;2023-05-10T04:31:27;13.50;99.90
17154;DHT22;8692;52.164;7.558;2023-05-10T04:33:57;13.50;99.90
17154;DHT22;8692;52.164;7.558;2023-05-10T04:36:27;13.50;99.90
17154;DHT22;8692;52.164;7.558;2023-05-10T04:38:56;13.50;99.90
17154;DHT22;8692;52.164;7.558;2023-05-10T04:41:24;13.50;99.90
17154;DHT22;8692;52.164;7.558;2023-05-10T04:43:54;13.50;99.90
17154;DHT22;8692;52.164;7.558;2023-05-10T04:46:22;13.50;99.90
17154;DHT22;8692;52.164;7.558;2023-05-10T04:48:50;13.60;99.90
17154;DHT22;8692;52.164;7.558;2023-05-10T04:51:18;13.50;99.90
17154;DHT22;8692;52.164;7.558;2023-05-10T04:53:47;13.50;99.90
17154;DHT22;8692;52.164;7.558;2023-05-10T04:56:33;13.50;99.90
17154;DHT22;8692;52.164;7.558;2023-05-10T04:59:03;13.50;99.90
17154;DHT22;8692;52.164;7.558;2023-05-10T05:01:31;13.60;99.90
17154;DHT22;8692;52.164;7.558;2023-05-10T05:03:59;13.50;99.90
17154;DHT22;8692;52.164;7.558;2023-05-10T05:06:30;13.60;99.90
17154;DHT22;8692;52.164;7.558;2023-05-10T05:09:01;13.50;99.90
17154;DHT22;8692;52.164;7.558;2023-05-10T05:11:31;13.60;99.90
17154;DHT22;8692;52.164;7.558;2023-05-10T05:13:59;13.50;99.90
17154;DHT22;8692;52.164;7.558;2023-05-10T05:16:30;13.60;99.90
17154;DHT22;8692;52.164;7.558;2023-05-10T05:18:59;13.60;99.90
17154;DHT22;8692;52.164;7.558;2023-05-10T05:21:30;13.60;99.90
17154;DHT22;8692;52.164;7.558;2023-05-10T05:23:59;13.60;99.90
17154;DHT22;8692;52.164;7.558;2023-05-10T05:26:27;13.60;99.90
17154;DHT22;8692;52.164;7.558;2023-05-10T05:28:55;13.60;99.90
17154;DHT22;8692;52.164;7.558;2023-05-10T05:31:24;13.60;99.90
17154;DHT22;8692;52.164;7.558;2023-05-10T05:33:56;13.70;99.90
17154;DHT22;8692;52.164;7.558;2023-05-10T05:36:24;13.70;99.90
17154;DHT22;8692;52.164;7.558;2023-05-10T05:38:53;13.70;99.90
17154;DHT22;8692;52.164;7.558;2023-05-10T05:41:24;13.70;99.90
17154;DHT22;8692;52.164;7.558;2023-05-10T05:43:55;13.70;99.90
17154;DHT22;8692;52.164;7.558;2023-05-10T05:46:23;13.70;99.90
17154;DHT22;8692;52.164;7.558;2023-05-10T05:48:51;13.70;99.90
17154;DHT22;8692;52.164;7.558;2023-05-10T05:51:21;13.70;99.90
17154;DHT22;8692;52.164;7.558;2023-05-10T05:53:49;13.70;99.90
17154;DHT22;8692;52.164;7.558;2023-05-10T05:56:19;13.70;99.90
17154;DHT22;8692;52.164;7.558;2023-05-10T05:58:51;13.70;99.90
17154;DHT22;8692;52.164;7.558;2023-05-10T06:01:20;13.80;99.90
17154;DHT22;8692;52.164;7.558;2023-05-10T06:03:50;13.80;99.90
17154;DHT22;8692;52.164;7.558;2023-05-10T06:06:23;13.80;99.90
17154;DHT22;8692;52.164;7.558;2023-05-10T06:08:51;13.80;99.90
17154;DHT22;8692;52.164;7.558;2023-05-10T06:11:19;13.90;99.90
17154;DHT22;8692;52.164;7.558;2023-05-10T06:13:47;13.90;99.90
17154;DHT22;8692;52.164;7.558;2023-05-10T06:16:16;14.00;99.90
17154;DHT22;8692;52.164;7.558;2023-05-10T06:18:46;14.00;99.90
17154;DHT22;8692;52.164;7.558;2023-05-10T06:21:17;14.00;99.90
17154;DHT22;8692;52.164;7.558;2023-05-10T06:23:46;14.10;99.90
17154;DHT22;8692;52.164;7.558;2023-05-10T06:26:14;14.10;99.90
17154;DHT22;8692;52.164;7.558;2023-05-10T06:28:43;14.10;99.90
17154;DHT22;8692;52.164;7.558;2023-05-10T06:31:13;14.10;99.90
17154;DHT22;8692;52.164;7.558;2023-05-10T06:33:42;14.20;99.90
17154;DHT22;8692;52.164;7.558;2023-05-10T06:36:10;14.20;99.90
17154;DHT22;8692;52.164;7.558;2023-05-10T06:38:38;14.20;99.90
17154;DHT22;8692;52.164;7.558;2023-05-10T06:41:07;14.20;99.90
17154;DHT22;8692;52.164;7.558;2023-05-10T06:43:36;14.20;99.90
17154;DHT22;8692;52.164;7.558;2023-05-10T06:46:06;14.30;99.90
17154;DHT22;8692;52.164;7.558;2023-05-10T06:48:35;14.30;99.90
17154;DHT22;8692;52.164;7.558;2023-05-10T06:51:05;14.30;99.90
17154;DHT22;8692;52.164;7.558;2023-05-10T06:53:34;14.30;99.90
17154;DHT22;8692;52.164;7.558;2023-05-10T06:56:02;14.30;99.90
17154;DHT22;8692;52.164;7.558;2023-05-10T06:58:34;14.30;99.90
17154;DHT22;8692;52.164;7.558;2023-05-10T07:01:03;14.30;99.90
17154;DHT22;8692;52.164;7.558;2023-05-10T07:03:32;14.30;99.90
17154;DHT22;8692;52.164;7.558;2023-05-10T07:06:01;14.30;99.90
17154;DHT22;8692;52.164;7.558;2023-05-10T07:08:33;14.40;99.90
17154;DHT22;8692;52.164;7.558;2023-05-10T07:11:02;14.40;99.90
17154;DHT22;8692;52.164;7.558;2023-05-10T07:13:31;14.40;99.90
17154;DHT22;8692;52.164;7.558;2023-05-10T07:16:01;14.40;99.90
17154;DHT22;8692;52.164;7.558;2023-05-10T07:18:29;14.40;99.90
17154;DHT22;8692;52.164;7.558;2023-05-10T07:20:58;14.40;99.90
17154;DHT22;8692;52.164;7.558;2023-05-10T07:23:26;14.50;99.90
17154;DHT22;8692;52.164;7.558;2023-05-10T07:25:54;14.50;99.90
17154;DHT22;8692;52.164;7.558;2023-05-10T07:28:24;14.50;99.90
17154;DHT22;8692;52.164;7.558;2023-05-10T07:30:52;14.50;99.90
17154;DHT22;8692;52.164;7.558;2023-05-10T07:33:24;14.50;99.90
17154;DHT22;8692;52.164;7.558;2023-05-10T07:35:52;14.50;99.90
17154;DHT22;8692;52.164;7.558;2023-05-10T07:38:23;14.60;99.90
17154;DHT22;8692;52.164;7.558;2023-05-10T07:40:51;14.60;99.90
17154;DHT22;8692;52.164;7.558;2023-05-10T07:43:19;14.60;99.90
17154;DHT22;8692;52.164;7.558;2023-05-10T07:45:47;14.60;99.90
17154;DHT22;8692;52.164;7.558;2023-05-10T07:48:18;14.70;99.90
17154;DHT22;8692;52.164;7.558;2023-05-10T07:50:48;14.60;99.90
17154;DHT22;8692;52.164;7.558;2023-05-10T07:53:18;14.70;99.90
17154;DHT22;8692;52.164;7.558;2023-05-10T07:55:50;14.70;99.90
17154;DHT22;8692;52.164;7.558;2023-05-10T07:58:18;14.70;99.90
17154;DHT22;8692;52.164;7.558;2023-05-10T08:00:46;14.70;99.90
17154;DHT22;8692;52.164;7.558;2023-05-10T08:03:15;14.70;99.90
17154;DHT22;8692;52.164;7.558;2023-05-10T08:05:44;14.80;99.90
17154;DHT22;8692;52.164;7.558;2023-05-10T08:08:16;14.80;99.90
17154;DHT22;8692;52.164;7.558;2023-05-10T08:10:47;14.80;99.90
17154;DHT22;8692;52.164;7.558;2023-05-10T08:13:15;14.80;99.90
17154;DHT22;8692;52.164;7.558;2023-05-10T08:15:43;14.80;99.90
17154;DHT22;8692;52.164;7.558;2023-05-10T08:18:14;14.90;99.90
17154;DHT22;8692;52.164;7.558;2023-05-10T08:20:42;14.90;99.90
17154;DHT22;8692;52.164;7.558;2023-05-10T08:23:12;14.90;99.90
17154;DHT22;8692;52.164;7.558;2023-05-10T08:25:41;14.90;99.90
17154;DHT22;8692;52.164;7.558;2023-05-10T08:28:10;14.90;99.90
17154;DHT22;8692;52.164;7.558;2023-05-10T08:30:40;15.00;99.90
17154;DHT22;8692;52.164;7.558;2023-05-10T08:33:08;15.00;99.90
17154;DHT22;8692;52.164;7.558;2023-05-10T08:35:37;15.00;99.90
17154;DHT22;8692;52.164;7.558;2023-05-10T08:38:05;15.00;99.90
17154;DHT22;8692;52.164;7.558;2023-05-10T08:40:33;15.00;99.90
17154;DHT22;8692;52.164;7.558;2023-05-10T08:43:05;15.00;99.90
17154;DHT22;8692;52.164;7.558;2023-05-10T08:45:36;15.00;99.90
17154;DHT22;8692;52.164;7.558;2023-05-10T08:48:08;15.00;99.90
17154;DHT22;8692;52.164;7.558;2023-05-10T08:50:39;15.10;99.90
17154;DHT22;8692;52.164;7.558;2023-05-10T08:53:10;15.10;99.90
17154;DHT22;8692;52.164;7.558;2023-05-10T08:55:39;15.20;99.90
17154;DHT22;8692;52.164;7.558;2023-05-10T08:58:13;15.20;99.90
17154;DHT22;8692;52.164;7.558;2023-05-10T09:00:42;15.20;99.90
17154;DHT22;8692;52.164;7.558;2023-05-10T09:03:13;15.30;99.90
17154;DHT22;8692;52.164;7.558;2023-05-10T09:05:44;15.30;99.90
17154;DHT22;8692;52.164;7.558;2023-05-10T09:08:16;15.30;99.90
17154;DHT22;8692;52.164;7.558;2023-05-10T09:10:45;15.40;99.90
17154;DHT22;8692;52.164;7.558;2023-05-10T09:13:15;15.40;99.90
17154;DHT22;8692;52.164;7.558;2023-05-10T09:15:45;15.40;99.90
17154;DHT22;8692;52.164;7.558;2023-05-10T09:18:14;15.40;99.90
17154;DHT22;8692;52.164;7.558;2023-05-10T09:20:42;15.40;99.90
17154;DHT22;8692;52.164;7.558;2023-05-10T09:23:10;15.40;99.90
17154;DHT22;8692;52.164;7.558;2023-05-10T09:25:38;15.40;99.90
17154;DHT22;8692;52.164;7.558;2023-05-10T09:28:09;15.40;99.90
17154;DHT22;8692;52.164;7.558;2023-05-10T09:30:41;15.40;99.90
17154;DHT22;8692;52.164;7.558;2023-05-10T09:33:09;15.40;99.90
17154;DHT22;8692;52.164;7.558;2023-05-10T09:35:40;15.50;99.90
17154;DHT22;8692;52.164;7.558;2023-05-10T09:38:09;15.50;99.90
17154;DHT22;8692;52.164;7.558;2023-05-10T09:40:37;15.50;99.90
17154;DHT22;8692;52.164;7.558;2023-05-10T09:43:08;15.60;99.90
17154;DHT22;8692;52.164;7.558;2023-05-10T09:45:37;15.60;99.90
17154;DHT22;8692;52.164;7.558;2023-05-10T09:48:09;15.70;99.90
17154;DHT22;8692;52.164;7.558;2023-05-10T09:50:37;15.70;99.90
17154;DHT22;8692;52.164;7.558;2023-05-10T09:53:07;15.70;99.90
17154;DHT22;8692;52.164;7.558;2023-05-10T09:55:39;15.70;99.90
17154;DHT22;8692;52.164;7.558;2023-05-10T09:58:10;15.70;99.90
17154;DHT22;8692;52.164;7.558;2023-05-10T10:00:42;15.70;99.90
17154;DHT22;8692;52.164;7.558;2023-05-10T10:03:16;15.70;99.90
17154;DHT22;8692;52.164;7.558;2023-05-10T10:05:47;15.70;99.90
17154;DHT22;8692;52.164;7.558;2023-05-10T10:08:16;15.80;99.90
17154;DHT22;8692;52.164;7.558;2023-05-10T10:10:47;15.80;99.90
17154;DHT22;8692;52.164;7.558;2023-05-10T10:13:20;15.80;99.90
17154;DHT22;8692;52.164;7.558;2023-05-10T10:15:52;15.90;99.90
17154;DHT22;8692;52.164;7.558;2023-05-10T10:18:23;15.90;99.90
17154;DHT22;8692;52.164;7.558;2023-05-10T10:20:56;15.90;99.90
17154;DHT22;8692;52.164;7.558;2023-05-10T10:23:25;16.00;99.90
17154;DHT22;8692;52.164;7.558;2023-05-10T10:25:54;16.10;99.90
17154;DHT22;8692;52.164;7.558;2023-05-10T10:28:30;16.10;99.90
17154;DHT22;8692;52.164;7.558;2023-05-10T10:31:15;16.20;99.90
17154;DHT22;8692;52.164;7.558;2023-05-10T10:33:57;16.30;99.90
17154;DHT22;8692;52.164;7.558;2023-05-10T10:36:29;16.30;99.90
17154;DHT22;8692;52.164;7.558;2023-05-10T10:38:58;16.50;99.90
17154;DHT22;8692;52.164;7.558;2023-05-10T10:41:32;16.50;99.90
17154;DHT22;8692;52.164;7.558;2023-05-10T10:44:34;16.60;99.90
17154;DHT22;8692;52.164;7.558;2023-05-10T10:47:21;16.70;99.90
17154;DHT22;8692;52.164;7.558;2023-05-10T10:50:05;16.80;99.90
17154;DHT22;8692;52.164;7.558;2023-05-10T10:52:36;16.90;99.90
17154;DHT22;8692;52.164;7.558;2023-05-10T10:55:08;17.00;99.90
17154;DHT22;8692;52.164;7.558;2023-05-10T10:57:47;17.10;99.90
17154;DHT22;8692;52.164;7.558;2023-05-10T11:00:24;17.20;99.90
17154;DHT22;8692;52.164;7.558;2023-05-10T11:03:00;17.30;99.90
17154;DHT22;8692;52.164;7.558;2023-05-10T11:05:38;17.40;99.90
17154;DHT22;8692;52.164;7.558;2023-05-10T11:08:09;17.50;99.90
17154;DHT22;8692;52.164;7.558;2023-05-10T11:10:38;17.50;99.90
17154;DHT22;8692;52.164;7.558;2023-05-10T11:13:10;17.60;99.90
17154;DHT22;8692;52.164;7.558;2023-05-10T11:15:39;17.70;99.90
17154;DHT22;8692;52.164;7.558;2023-05-10T11:18:18;17.80;99.90
17154;DHT22;8692;52.164;7.558;2023-05-10T11:20:52;17.90;99.90
17154;DHT22;8692;52.164;7.558;2023-05-10T11:23:21;18.00;99.90
17154;DHT22;8692;52.164;7.558;2023-05-10T11:25:51;18.10;99.90
17154;DHT22;8692;52.164;7.558;2023-05-10T11:28:23;18.20;99.90
17154;DHT22;8692;52.164;7.558;2023-05-10T11:30:54;18.20;99.90
17154;DHT22;8692;52.164;7.558;2023-05-10T11:33:22;18.20;99.90
17154;DHT22;8692;52.164;7.558;2023-05-10T11:35:52;18.30;99.90
17154;DHT22;8692;52.164;7.558;2023-05-10T11:38:23;18.30;99.90
17154;DHT22;8692;52.164;7.558;2023-05-10T11:40:51;18.40;99.90
17154;DHT22;8692;52.164;7.558;2023-05-10T11:43:23;18.50;99.90
17154;DHT22;8692;52.164;7.558;2023-05-10T11:45:55;18.50;99.90
17154;DHT22;8692;52.164;7.558;2023-05-10T11:48:26;18.50;99.90
17154;DHT22;8692;52.164;7.558;2023-05-10T11:50:58;18.50;99.90
17154;DHT22;8692;52.164;7.558;2023-05-10T11:53:32;18.60;99.90
17154;DHT22;8692;52.164;7.558;2023-05-10T11:56:03;18.50;99.90
17154;DHT22;8692;52.164;7.558;2023-05-10T11:58:32;18.60;99.90
17154;DHT22;8692;52.164;7.558;2023-05-10T12:01:04;18.60;99.90
17154;DHT22;8692;52.164;7.558;2023-05-10T12:03:33;18.70;99.90
17154;DHT22;8692;52.164;7.558;2023-05-10T12:06:07;18.70;99.90
17154;DHT22;8692;52.164;7.558;2023-05-10T12:08:35;18.80;99.90
17154;DHT22;8692;52.164;7.558;2023-05-10T12:11:05;18.90;99.90
17154;DHT22;8692;52.164;7.558;2023-05-10T12:13:38;18.80;99.90
17154;DHT22;8692;52.164;7.558;2023-05-10T12:16:14;18.80;99.90
17154;DHT22;8692;52.164;7.558;2023-05-10T12:18:45;18.80;99.90
17154;DHT22;8692;52.164;7.558;2023-05-10T12:21:18;18.90;99.90
17154;DHT22;8692;52.164;7.558;2023-05-10T12:23:47;19.00;99.90
17154;DHT22;8692;52.164;7.558;2023-05-10T12:26:16;19.10;99.90
17154;DHT22;8692;52.164;7.558;2023-05-10T12:28:47;19.10;99.90
17154;DHT22;8692;52.164;7.558;2023-05-10T12:31:15;19.10;99.90
17154;DHT22;8692;52.164;7.558;2023-05-10T12:33:44;19.20;99.90
17154;DHT22;8692;52.164;7.558;2023-05-10T12:36:15;19.20;99.90
17154;DHT22;8692;52.164;7.558;2023-05-10T12:38:48;19.30;99.90
17154;DHT22;8692;52.164;7.558;2023-05-10T12:41:19;19.40;99.90
17154;DHT22;8692;52.164;7.558;2023-05-10T12:43:48;19.60;99.90
17154;DHT22;8692;52.164;7.558;2023-05-10T12:46:17;19.80;99.90
17154;DHT22;8692;52.164;7.558;2023-05-10T12:48:45;19.90;99.90
17154;DHT22;8692;52.164;7.558;2023-05-10T12:51:29;20.00;99.90
17154;DHT22;8692;52.164;7.558;2023-05-10T12:54:01;20.10;99.90
17154;DHT22;8692;52.164;7.558;2023-05-10T12:56:30;20.10;99.90
17154;DHT22;8692;52.164;7.558;2023-05-10T12:58:58;20.10;99.90
17154;DHT22;8692;52.164;7.558;2023-05-10T13:01:26;20.10;99.90
17154;DHT22;8692;52.164;7.558;2023-05-10T13:03:55;20.10;99.90
17154;DHT22;8692;52.164;7.558;2023-05-10T13:06:23;20.10;99.90
17154;DHT22;8692;52.164;7.558;2023-05-10T13:08:54;20.10;99.90
17154;DHT22;8692;52.164;7.558;2023-05-10T13:11:26;20.10;99.90
17154;DHT22;8692;52.164;7.558;2023-05-10T13:13:54;20.00;99.90
17154;DHT22;8692;52.164;7.558;2023-05-10T13:16:22;20.00;99.90
17154;DHT22;8692;52.164;7.558;2023-05-10T13:18:51;20.00;99.90
17154;DHT22;8692;52.164;7.558;2023-05-10T13:21:22;20.00;99.90
17154;DHT22;8692;52.164;7.558;2023-05-10T13:23:53;19.90;99.90
17154;DHT22;8692;52.164;7.558;2023-05-10T13:26:31;19.90;99.90
17154;DHT22;8692;52.164;7.558;2023-05-10T13:29:09;19.90;99.90
17154;DHT22;8692;52.164;7.558;2023-05-10T13:31:45;19.90;99.90
17154;DHT22;8692;52.164;7.558;2023-05-10T13:34:15;20.00;99.90
17154;DHT22;8692;52.164;7.558;2023-05-10T13:36:51;20.00;99.90
17154;DHT22;8692;52.164;7.558;2023-05-10T13:39:30;20.10;99.90
17154;DHT22;8692;52.164;7.558;2023-05-10T13:42:06;20.10;99.90
17154;DHT22;8692;52.164;7.558;2023-05-10T13:44:34;20.00;99.90
17154;DHT22;8692;52.164;7.558;2023-05-10T13:47:05;20.10;99.90
17154;DHT22;8692;52.164;7.558;2023-05-10T13:49:33;20.00;99.90
17154;DHT22;8692;52.164;7.558;2023-05-10T13:52:01;20.00;99.90
17154;DHT22;8692;52.164;7.558;2023-05-10T13:54:36;20.00;99.90
17154;DHT22;8692;52.164;7.558;2023-05-10T13:57:06;19.90;99.90
17154;DHT22;8692;52.164;7.558;2023-05-10T13:59:37;20.00;99.90
17154;DHT22;8692;52.164;7.558;2023-05-10T14:02:05;20.10;99.90
17154;DHT22;8692;52.164;7.558;2023-05-10T14:04:36;20.10;99.90
17154;DHT22;8692;52.164;7.558;2023-05-10T14:07:04;20.00;99.90
17154;DHT22;8692;52.164;7.558;2023-05-10T14:09:32;19.90;99.90
17154;DHT22;8692;52.164;7.558;2023-05-10T14:12:03;19.80;99.90
17154;DHT22;8692;52.164;7.558;2023-05-10T14:14:33;19.80;99.90
17154;DHT22;8692;52.164;7.558;2023-05-10T14:17:01;19.80;99.90
17154;DHT22;8692;52.164;7.558;2023-05-10T14:19:29;19.70;99.90
17154;DHT22;8692;52.164;7.558;2023-05-10T14:21:59;19.70;99.90
17154;DHT22;8692;52.164;7.558;2023-05-10T14:24:30;19.70;99.90
17154;DHT22;8692;52.164;7.558;2023-05-10T14:27:00;19.70;99.90
17154;DHT22;8692;52.164;7.558;2023-05-10T14:29:32;19.80;99.90
17154;DHT22;8692;52.164;7.558;2023-05-10T14:32:00;19.90;99.90
17154;DHT22;8692;52.164;7.558;2023-05-10T14:34:29;20.00;99.90
17154;DHT22;8692;52.164;7.558;2023-05-10T14:37:00;20.10;99.90
17154;DHT22;8692;52.164;7.558;2023-05-10T14:39:30;20.10;99.90
17154;DHT22;8692;52.164;7.558;2023-05-10T14:41:59;20.00;99.90
17154;DHT22;8692;52.164;7.558;2023-05-10T14:44:29;20.00;99.90
17154;DHT22;8692;52.164;7.558;2023-05-10T14:47:01;20.00;99.90
17154;DHT22;8692;52.164;7.558;2023-05-10T14:49:31;19.90;99.90
17154;DHT22;8692;52.164;7.558;2023-05-10T14:51:59;19.80;99.90
17154;DHT22;8692;52.164;7.558;2023-05-10T14:54:30;19.80;99.90
17154;DHT22;8692;52.164;7.558;2023-05-10T14:57:02;19.70;99.90
17154;DHT22;8692;52.164;7.558;2023-05-10T14:59:30;19.70;99.90
17154;DHT22;8692;52.164;7.558;2023-05-10T15:02:01;19.50;99.90
17154;DHT22;8692;52.164;7.558;2023-05-10T15:04:32;19.40;99.90
17154;DHT22;8692;52.164;7.558;2023-05-10T15:07:01;19.40;99.90
17154;DHT22;8692;52.164;7.558;2023-05-10T15:09:30;19.30;99.90
17154;DHT22;8692;52.164;7.558;2023-05-10T15:11:58;19.30;99.90
17154;DHT22;8692;52.164;7.558;2023-05-10T15:14:26;19.20;99.90
17154;DHT22;8692;52.164;7.558;2023-05-10T15:16:54;19.10;99.90
17154;DHT22;8692;52.164;7.558;2023-05-10T15:19:26;19.00;99.90
17154;DHT22;8692;52.164;7.558;2023-05-10T15:21:55;19.00;99.90
17154;DHT22;8692;52.164;7.558;2023-05-10T15:24:23;19.00;99.90
17154;DHT22;8692;52.164;7.558;2023-05-10T15:26:54;19.00;99.90
17154;DHT22;8692;52.164;7.558;2023-05-10T15:29:22;19.00;99.90
17154;DHT22;8692;52.164;7.558;2023-05-10T15:31:53;18.90;99.90
17154;DHT22;8692;52.164;7.558;2023-05-10T15:34:21;18.90;99.90
17154;DHT22;8692;52.164;7.558;2023-05-10T15:36:53;18.80;99.90
17154;DHT22;8692;52.164;7.558;2023-05-10T15:39:23;18.80;99.90
17154;DHT22;8692;52.164;7.558;2023-05-10T15:41:51;18.80;99.90
17154;DHT22;8692;52.164;7.558;2023-05-10T15:44:20;18.90;99.90
17154;DHT22;8692;52.164;7.558;2023-05-10T15:46:51;18.90;99.90
17154;DHT22;8692;52.164;7.558;2023-05-10T15:49:19;18.90;99.90
17154;DHT22;8692;52.164;7.558;2023-05-10T15:51:50;19.00;99.90
17154;DHT22;8692;52.164;7.558;2023-05-10T15:54:22;19.10;99.90
17154;DHT22;8692;52.164;7.558;2023-05-10T15:56:50;19.20;99.90
17154;DHT22;8692;52.164;7.558;2023-05-10T15:59:23;19.20;99.90
17154;DHT22;8692;52.164;7.558;2023-05-10T16:01:53;19.20;99.90
17154;DHT22;8692;52.164;7.558;2023-05-10T16:04:24;19.30;99.90
17154;DHT22;8692;52.164;7.558;2023-05-10T16:06:53;19.40;99.90
17154;DHT22;8692;52.164;7.558;2023-05-10T16:09:22;19.40;99.90